Terminal Aerodrome Forecast
Issued by NWS Cheyenne, WY

Home | Current Version | Previous Version | Text Only | Print | Product List | Glossary On
Versions: 1 2 3 4 5 6 7 8 9 10 11 12 13 14 15 16 17 18 19 20 21 22 23 24 25 26 27 28 29 30 31 32 33 34 35 36
000
FTUS45 KCYS 061146
TAFCYS
TAF
KCYS 061146Z 0612/0712 30014KT P6SM SCT150
     FM061700 33010KT P6SM OVC100
     FM062100 07008KT P6SM VCSH OVC035
     FM070200 06007KT 1SM -SN BKN007 OVC025=

USA.gov is the U.S. government's official web portal to all federal, state and local government web resources and services.